Flight Track Log - Related Links

Times and Time Zones

All times are in EDT time to prevent confusion due to time zone crossing. See the EJA831 flight status page for this flight to view local times or setup timezone preferences in your user account.

Time Position Orientation Groundspeed Altitude Reporting Facility
EDT Latitude Longitude Course Direction KTS MPH feet Rate Location/Type
Fri 05:41:49 PM 33.8500 -84.3000 54° Northeast 175 201 2,600  Level Atlanta TRACON
Fri 05:42:49 PM 33.8500 -84.2333 90° East 218 251 3,700 1,500 Climbing Atlanta TRACON
Fri 05:43:49 PM 33.8833 -84.1833 51° Northeast 225 259 5,600 2,095 Climbing Atlanta TRACON
Fri 05:44:55 PM 33.9000 -84.1000 76° East 228 262 8,100 1,267 Climbing Atlanta TRACON
Fri 05:46:30 PM 33.8506 -83.9789 116° Southeast 265 305 9,000 1,084 Climbing Atlanta Center
Fri 05:47:00 PM 33.9009 -83.7430 54° Northeast  Level FlightAware
Fri 05:47:30 PM 33.8483 -83.8836 92° East 278 320 10,900  Level Atlanta Center
Fri 05:48:30 PM 33.8544 -83.7936 85° East 273 314 13,500 2,700 Climbing Atlanta Center
Fri 05:49:30 PM 33.8378 -83.7186 105° East 267 307 16,300 2,900 Climbing Atlanta Center
Fri 05:50:30 PM 33.8833 -83.6708 41° Northeast 207 238 19,300 2,300 Climbing Atlanta Center
Fri 05:51:30 PM 33.9186 -83.6008 59° Northeast 217 250 20,900 850 Climbing Atlanta Center
Fri 05:52:30 PM 33.9622 -83.5053 61° Northeast 286 329 21,000 50 Climbing Atlanta Center
Fri 05:53:30 PM 34.0286 -83.4122 49° Northeast 341 392 21,000  Level Atlanta Center
Fri 05:54:30 PM 34.0967 -83.3089 51° Northeast 380 437 21,000  Level Atlanta Center
Fri 05:55:30 PM 34.1672 -83.2078 50° Northeast 393 452 21,000  Level Atlanta Center
Fri 05:56:30 PM 34.2353 -83.1067 51° Northeast 400 460 21,000  Level Atlanta Center
Fri 05:57:30 PM 34.3075 -83.0028 50° Northeast 383 441 21,000  Level Atlanta Center
Fri 05:58:30 PM 34.3714 -82.9089 50° Northeast 370 426 21,000  Level Atlanta Center
Fri 05:59:30 PM 34.4353 -82.8147 51° Northeast 355 409 21,000  Level Atlanta Center
Fri 06:00:30 PM 34.4969 -82.7256 50° Northeast 355 409 21,000  Level Atlanta Center
Fri 06:01:30 PM 34.5583 -82.6339 51° Northeast 355 409 21,000  Level Atlanta Center
Fri 06:02:30 PM 34.6325 -82.5544 41° Northeast 350 403 21,000  Level Atlanta Center
Fri 06:03:30 PM 34.7006 -82.4697 46° Northeast 345 397 21,000  Level Atlanta Center
Fri 06:04:30 PM 34.7703 -82.3850 45° Northeast 345 397 21,000  Level Atlanta Center
Fri 06:05:30 PM 34.8358 -82.3028 46° Northeast 345 397 21,000  Level Atlanta Center
Fri 06:06:30 PM 34.9056 -82.2178 45° Northeast 345 397 21,000  Level Atlanta Center
Fri 06:07:30 PM 34.9775 -82.1325 44° Northeast 350 403 21,000  Level Atlanta Center
Fri 06:08:30 PM 35.0469 -82.0472 45° Northeast 345 397 21,000  Level Atlanta Center
Fri 06:09:30 PM 35.1144 -81.9617 46° Northeast 340 391 21,000  Level Atlanta Center
Fri 06:10:30 PM 35.1817 -81.8736 47° Northeast 345 397 21,000  Level Atlanta Center
Fri 06:11:30 PM 35.2511 -81.7881 45° Northeast 345 397 21,000  Level Atlanta Center
Fri 06:12:30 PM 35.3206 -81.7072 44° Northeast 345 397 21,000  Level Atlanta Center
Fri 06:13:30 PM 35.3944 -81.6439 35° Northeast 345 397 21,000  Level Atlanta Center
Fri 06:14:30 PM 35.4767 -81.5803 32° Northeast 352 405 21,000  Level Atlanta Center
Fri 06:15:30 PM 35.5608 -81.5139 33° Northeast 352 405 21,000  Level Atlanta Center
Fri 06:16:30 PM 35.6431 -81.4500 32° Northeast 352 405 21,000  Level Atlanta Center
Fri 06:17:30 PM 35.7353 -81.3731 34° Northeast 352 405 21,000 -150 Level Atlanta Center
Fri 06:18:30 PM 35.8192 -81.3061 33° Northeast 358 412 20,700 -950 Descending Atlanta Center
Fri 06:19:30 PM 35.9072 -81.2339 34° Northeast 363 418 19,100 -1,550 Descending Atlanta Center
Fri 06:20:30 PM 35.9975 -81.1592 34° Northeast 381 438 17,600 -1,500 Descending Atlanta Center
Fri 06:21:30 PM 36.0875 -81.0864 33° Northeast 386 444 16,100 -1,500 Descending Atlanta Center
Fri 06:22:30 PM 36.1606 -81.0014 43° Northeast 370 426 14,600 -1,350 Descending Atlanta Center
Fri 06:23:30 PM 36.1619 -80.8933 89° East 327 376 13,400 -1,400 Descending Atlanta Center
Fri 06:24:30 PM 36.1442 -80.7758 101° East 339 390 11,800 -1,200 Descending Atlanta Center
Fri 06:25:30 PM 36.1306 -80.6581 98° East 339 390 11,000 -400 Descending Atlanta Center
Fri 06:26:30 PM 36.1147 -80.5406 99° East 339 390 11,000 -400 Level Atlanta Center
Fri 06:27:30 PM 36.1008 -80.4178 98° East 344 396 10,200 -900 Descending Atlanta Center
Fri 06:28:30 PM 36.0872 -80.3156 99° East 320 368 9,200 -950 Descending Atlanta Center
Fri 06:29:30 PM 36.0739 -80.2136 99° East 307 353 8,300 -950 Descending Atlanta Center
Fri 06:30:30 PM 36.0961 -80.1250 73° East 272 313 7,300 -650 Descending Atlanta Center
Fri 06:31:30 PM 36.1506 -80.0683 40° Northeast 267 307 7,000 -150 Descending Atlanta Center
Fri 06:32:30 PM 36.2044 -79.9989 46° Northeast 267 307 7,000  Level Atlanta Center
Fri 06:34:00 PM 36.1013 -79.9411 156° South  Level Estimated
Fri 06:41:00 PM 36.1013 -79.9411 214° Southwest  Level Estimated
Fri 06:42:00 PM 36.1013 -79.9411 214° Southwest  Level Estimated
Fri 06:43:00 PM 36.1013 -79.9411 214° Southwest  Level Estimated
Fri 06:44:00 PM 36.1013 -79.9411 214° Southwest  Level Estimated
Fri 06:45:00 PM 36.1013 -79.9411 214° Southwest  Level Estimated
Fri 06:46:00 PM 36.1013 -79.9411 214° Southwest  Level Estimated

Login

Don't have an account? Register now (free) for customized features, flight alerts, and more!